Latest Weather Observations for Rottnest Island

IDW60901

Issued at 10:41 pm WST Sunday 24 July 2016 (issued every 10 minutes, with the page automatically refreshed every 10 minutes)

About weather observations | Map of Perth area stations | Latest observations for Perth area | Other Formats
Station Details ID: 009193 Name: ROTTNEST ISLAND Lat: -32.01 Lon: 115.50 Height: 43.1 m
Data from the previous 72 hours. | See also: Recent months at Rottnest Island
Date/Time
WST
Temp
°C
App
Temp
°C
Dew
Point
°C
Rel
Hum
%
Delta-T
°C
Wind Press
QNH
hPa
Press
MSL
hPa
Rain since
9am
mm
Dir  Spd
km/h
Gust
km/h
Spd
kts
Gust
kts
24/10:30pm 12.8 10.3 6.6 66 2.9 NE 9 13 5 7 1027.5 1027.5 0.0
24/10:00pm 12.8 9.9 6.6 66 2.9 ESE 11 15 6 8 1027.7 1027.7 0.0
24/09:30pm 12.7 9.9 7.0 68 2.8 ESE 11 15 6 8 1027.6 1027.6 0.0
24/09:00pm 13.2 8.9 7.0 66 3.0 SE 19 24 10 13 1027.5 1027.5 0.0
24/08:30pm 13.3 8.4 6.9 65 3.1 SSE 22 30 12 16 1027.2 1027.2 0.0
24/08:00pm 13.3 7.7 7.1 66 3.0 S 26 33 14 18 1027.1 1027.1 0.0
24/07:30pm 13.2 7.8 6.5 64 3.2 SSE 24 30 13 16 1026.9 1026.9 0.0
24/07:00pm 13.1 7.7 6.2 63 3.3 SSE 24 32 13 17 1026.8 1026.8 0.0
24/06:30pm 13.1 8.2 6.7 65 3.1 SSE 22 30 12 16 1026.7 1026.7 0.0
24/06:00pm 13.1 8.4 6.2 63 3.3 S 20 28 11 15 1026.4 1026.4 0.0
24/05:30pm 13.1 8.0 6.2 63 3.3 S 22 30 12 16 1026.2 1026.2 0.0
24/05:00pm 13.1 8.3 5.8 61 3.4 SSE 20 28 11 15 1026.1 1026.1 0.0
24/04:30pm 13.2 8.0 5.6 60 3.6 SSE 22 30 12 16 1026.0 1026.0 0.0
24/04:00pm 13.1 7.5 5.5 60 3.5 SSE 24 32 13 17 1026.0 1026.0 0.0
24/03:30pm 13.3 8.5 5.5 59 3.7 SSE 20 28 11 15 1025.9 1025.9 0.0
24/03:00pm 13.8 10.0 5.7 58 3.8 SSE 15 24 8 13 1025.9 1025.9 0.0
24/02:30pm 13.5 9.2 5.4 58 3.8 SE 17 24 9 13 1026.1 1026.1 0.0
24/02:00pm 13.0 8.0 4.4 56 3.9 SE 20 28 11 15 1026.2 1026.2 0.0
24/01:30pm 13.2 9.1 4.4 55 4.0 ESE 15 20 8 11 1026.6 1026.6 0.0
24/01:00pm 13.0 9.2 3.9 54 4.1 E 13 22 7 12 1027.0 1027.0 0.0
24/12:30pm 12.8 8.2 3.7 54 4.1 E 17 24 9 13 1027.5 1027.5 0.0
24/12:00pm 12.4 7.7 3.1 53 4.1 ESE 17 24 9 13 1028.0 1028.0 0.0
24/11:30am 12.6 8.5 4.1 56 3.8 ESE 15 20 8 11 1028.4 1028.4 0.0
24/11:00am 12.3 8.5 4.0 57 3.7 ESE 13 19 7 10 1028.8 1028.8 0.0
24/10:30am 12.2 8.0 3.9 57 3.7 ESE 15 19 8 10 1028.9 1028.9 0.0
24/10:00am 12.2 8.8 3.9 57 3.7 NE 11 17 6 9 1029.0 1029.0 0.0
24/09:30am 11.9 8.5 4.2 59 3.5 E 11 15 6 8 1028.8 1028.8 0.0
24/09:00am 11.3 7.2 4.3 62 3.1 ENE 15 19 8 10 1028.7 1028.7 0.4
24/08:30am 10.6 6.9 4.5 66 2.7 ENE 13 17 7 9 1028.3 1028.3 0.4
24/08:00am 9.6 5.4 4.0 68 2.4 E 15 17 8 9 1027.9 1027.9 0.4
24/07:30am 8.7 4.7 3.1 68 2.4 E 13 17 7 9 1027.6 1027.6 0.4
24/07:00am 8.8 4.9 3.2 68 2.4 E 13 17 7 9 1027.3 1027.3 0.4
24/06:30am 9.0 5.0 3.0 66 2.6 E 13 15 7 8 1027.0 1027.0 0.4
24/06:00am 9.2 5.2 2.8 64 2.7 E 13 17 7 9 1026.6 1026.6 0.4
24/05:30am 9.1 5.1 2.9 65 2.6 ESE 13 17 7 9 1026.6 1026.6 0.4
24/05:00am 9.5 5.1 2.6 62 2.9 ESE 15 22 8 12 1026.4 1026.4 0.4
24/04:30am 9.6 4.9 2.9 63 2.9 ESE 17 24 9 13 1026.3 1026.3 0.4
24/04:00am 9.8 5.4 2.9 62 2.9 ESE 15 22 8 12 1026.2 1026.2 0.4
24/03:30am 9.8 5.4 2.9 62 3.0 ESE 15 20 8 11 1026.3 1026.3 0.4
24/03:00am 10.3 5.6 3.1 61 3.1 SE 17 30 9 16 1026.5 1026.5 0.4
24/02:30am 10.6 4.2 3.2 60 3.2 SE 26 35 14 19 1026.5 1026.5 0.4
24/02:00am 10.3 5.1 3.3 62 3.0 SE 20 30 11 16 1026.5 1026.5 0.4
24/01:30am 10.2 5.0 3.5 63 2.9 SE 20 28 11 15 1026.3 1026.3 0.4
24/01:00am 10.8 4.5 3.8 62 3.1 SE 26 35 14 19 1026.2 1026.2 0.4
24/12:30am 10.9 3.2 3.2 59 3.4 SE 33 44 18 24 1026.2 1026.2 0.4
24/12:00am 10.6 3.1 4.3 65 2.8 SE 33 41 18 22 1026.2 1026.2 0.4
 
Date/Time
WST
Temp
°C
App
Temp
°C
Dew
Point
°C
Rel
Hum
%
Delta-T
°C
Wind Press
QNH
hPa
Press
MSL
hPa
Rain since
9am
mm
Dir  Spd
km/h
Gust
km/h
Spd
kts
Gust
kts
23/11:30pm 11.5 3.6 2.5 54 3.9 SE 33 46 18 25 1026.1 1026.1 0.4
23/11:00pm 11.7 4.1 3.7 58 3.5 SSE 33 44 18 24 1026.0 1026.0 0.4
23/10:30pm 11.9 4.4 4.6 61 3.3 SSE 33 46 18 25 1025.8 1025.8 0.4
23/10:00pm 12.2 3.6 4.9 61 3.3 SSE 39 50 21 27 1025.6 1025.6 0.4
23/09:30pm 12.7 3.7 4.7 58 3.7 SSE 41 52 22 28 1025.1 1025.1 0.4
23/09:00pm 12.9 5.0 4.1 55 4.0 SSE 35 48 19 26 1024.9 1024.9 0.4
23/08:30pm 13.1 5.4 5.3 59 3.6 SSE 35 44 19 24 1024.7 1024.7 0.4
23/08:00pm 13.4 5.4 5.8 60 3.6 SSE 37 46 20 25 1024.4 1024.4 0.4
23/07:30pm 13.4 5.7 3.5 51 4.5 S 33 43 18 23 1024.3 1024.3 0.4
23/07:00pm 13.6 5.7 6.2 61 3.5 S 37 48 20 26 1024.0 1024.0 0.4
23/06:30pm 13.6 4.7 5.3 57 3.9 S 41 52 22 28 1023.5 1023.5 0.4
23/06:00pm 13.8 5.5 5.9 59 3.7 S 39 50 21 27 1023.1 1023.1 0.4
23/05:30pm 13.9 5.5 5.8 58 3.8 S 39 52 21 28 1022.9 1022.9 0.4
23/05:00pm 14.0 5.6 7.3 64 3.3 S 41 54 22 29 1022.4 1022.4 0.4
23/04:30pm 14.0 5.5 7.1 63 3.4 S 41 50 22 27 1022.1 1022.1 0.4
23/04:00pm 14.2 5.5 7.7 65 3.2 S 43 52 23 28 1021.8 1021.8 0.4
23/03:30pm 13.7 5.1 9.0 73 2.4 S 44 57 24 31 1021.5 1021.5 0.4
23/03:17pm 13.3 4.7 9.0 75 2.2 S 44 67 24 36 1021.4 1021.4 0.4
23/03:00pm 13.8 6.8 9.8 77 2.1 S 37 46 20 25 1021.7 1021.7 0.4
23/02:30pm 13.2 6.0 10.6 84 1.4 S 39 56 21 30 1021.6 1021.6 0.4
23/02:11pm 12.7 6.7 10.8 88 1.0 S 33 43 18 23 1021.9 1021.9 0.4
23/02:00pm 13.3 5.5 9.9 80 1.7 SW 41 52 22 28 1022.2 1022.2 0.0
23/01:45pm 14.7 8.6 9.7 72 2.6 WSW 32 52 17 28 1022.0 1022.0 0.0
23/01:30pm 14.6 8.2 9.2 70 2.8 WSW 33 46 18 25 1022.0 1022.0 0.0
23/01:00pm 16.4 9.3 8.1 58 4.2 WSW 35 43 19 23 1022.2 1022.2 0.0
23/12:30pm 16.0 10.0 7.0 55 4.4 WSW 28 37 15 20 1022.5 1022.5 0.0
23/12:00pm 16.1 9.3 7.1 55 4.4 SW 32 43 17 23 1023.0 1023.0 0.0
23/11:30am 15.5 10.2 8.5 63 3.6 WSW 26 37 14 20 1023.5 1023.5 0.0
23/11:00am 15.4 9.6 7.9 61 3.7 WSW 28 39 15 21 1023.5 1023.5 0.0
23/10:30am 14.9 9.6 8.4 65 3.3 WSW 26 33 14 18 1023.6 1023.6 0.0
23/10:00am 14.9 8.4 8.2 64 3.4 SW 32 44 17 24 1023.6 1023.6 0.0
23/09:30am 14.3 7.4 6.6 60 3.7 SW 32 39 17 21 1023.6 1023.6 0.0
23/09:00am 13.3 8.1 7.3 67 2.9 SW 24 43 13 23 1023.5 1023.5 0.0
23/08:30am 14.3 7.4 6.6 60 3.7 WSW 32 43 17 23 1023.1 1023.1 0.0
23/08:00am 13.7 6.9 6.8 63 3.3 WSW 32 44 17 24 1022.8 1022.8 0.0
23/07:30am 13.6 7.6 6.9 64 3.2 WSW 28 35 15 19 1022.7 1022.7 0.0
23/07:00am 12.8 9.5 8.1 73 2.3 SW 15 19 8 10 1022.6 1022.6 0.0
23/06:30am 13.2 8.8 7.2 67 2.9 SW 20 28 11 15 1022.6 1022.6 0.0
23/06:00am 12.1 7.8 7.0 71 2.4 WSW 19 24 10 13 1022.4 1022.4 0.0
23/05:30am 11.8 9.2 7.9 77 1.9 NNW 11 13 6 7 1022.4 1022.4 0.0
23/05:00am 11.4 7.9 7.3 76 2.0 NNW 15 19 8 10 1022.5 1022.5 0.0
23/04:30am 12.0 8.9 7.1 72 2.4 N 13 17 7 9 1022.8 1022.8 0.0
23/04:00am 12.5 11.1 5.4 62 3.3 NNE 2 7 1 4 1023.0 1023.0 0.0
23/03:30am 12.3 9.1 5.0 61 3.4 NNE 11 13 6 7 1023.1 1023.1 0.0
23/03:00am 12.3 9.1 5.0 61 3.3 NNE 11 13 6 7 1023.2 1023.2 0.0
23/02:30am 12.0 8.8 5.2 63 3.1 NNE 11 15 6 8 1023.2 1023.2 0.0
23/02:00am 11.8 8.6 5.0 63 3.1 NNE 11 15 6 8 1023.3 1023.3 0.0
23/01:30am 12.3 9.7 4.0 57 3.7 NE 7 9 4 5 1023.3 1023.3 0.0
23/01:00am 12.3 9.5 3.3 54 4.0 NE 7 9 4 5 1023.3 1023.3 0.0
23/12:30am 12.1 9.4 3.6 56 3.8 NE 7 9 4 5 1023.4 1023.4 0.0
23/12:00am 11.9 8.8 3.4 56 3.7 ENE 9 11 5 6 1023.5 1023.5 0.0
 
Date/Time
WST
Temp
°C
App
Temp
°C
Dew
Point
°C
Rel
Hum
%
Delta-T
°C
Wind Press
QNH
hPa
Press
MSL
hPa
Rain since
9am
mm
Dir  Spd
km/h
Gust
km/h
Spd
kts
Gust
kts
22/11:30pm 11.8 8.4 3.8 58 3.6 ENE 11 13 6 7 1023.7 1023.7 0.0
22/11:00pm 11.8 8.4 3.8 58 3.6 E 11 15 6 8 1023.7 1023.7 0.0
22/10:30pm 12.1 8.7 3.9 57 3.7 E 11 13 6 7 1023.9 1023.9 0.0
22/10:00pm 12.1 8.7 4.1 58 3.6 E 11 13 6 7 1023.9 1023.9 0.0
22/09:30pm 12.4 9.0 3.9 56 3.8 ESE 11 15 6 8 1023.9 1023.9 0.0
22/09:00pm 12.6 8.5 4.1 56 3.8 ESE 15 20 8 11 1024.0 1024.0 0.0
22/08:30pm 12.7 9.0 4.2 56 3.9 SE 13 17 7 9 1023.9 1023.9 0.0
22/08:00pm 12.8 8.7 4.5 57 3.8 SE 15 24 8 13 1023.7 1023.7 0.0
22/07:30pm 13.0 8.0 4.7 57 3.8 SSE 20 28 11 15 1023.6 1023.6 0.0
22/07:00pm 13.1 7.7 4.3 55 4.0 SSE 22 28 12 15 1023.5 1023.5 0.0
22/06:30pm 13.1 7.2 3.7 53 4.2 SSE 24 32 13 17 1023.2 1023.2 0.0
22/06:00pm 13.1 7.7 4.5 56 3.9 SSE 22 32 12 17 1023.1 1023.1 0.0
22/05:30pm 12.9 8.0 5.1 59 3.6 SE 20 24 11 13 1023.0 1023.0 0.0
22/05:00pm 12.8 7.8 4.8 58 3.7 SSE 20 28 11 15 1023.0 1023.0 0.0
22/04:30pm 13.0 6.8 4.2 55 4.0 SSE 26 30 14 16 1022.9 1022.9 0.0
22/04:00pm 13.2 7.9 4.9 57 3.8 SSE 22 28 12 15 1022.9 1022.9 0.0
22/03:30pm 13.1 7.9 5.3 59 3.6 S 22 28 12 15 1022.9 1022.9 0.0
22/03:00pm 13.2 7.5 5.1 58 3.7 S 24 32 13 17 1022.8 1022.8 0.0
22/02:30pm 13.7 8.0 4.8 55 4.1 SSE 24 30 13 16 1023.1 1023.1 0.0
22/02:00pm 13.8 8.4 4.4 53 4.3 SSE 22 30 12 16 1023.1 1023.1 0.0
22/01:30pm 13.4 7.9 3.8 52 4.3 SSE 22 30 12 16 1023.2 1023.2 0.0
22/01:00pm 13.7 7.8 4.0 52 4.4 SSE 24 33 13 18 1023.4 1023.4 0.0
22/12:30pm 13.5 7.7 4.6 55 4.1 SE 24 30 13 16 1023.5 1023.5 0.0
22/12:00pm 13.3 7.5 4.5 55 4.0 SE 24 32 13 17 1023.6 1023.6 0.0
22/11:30am 13.2 7.4 4.6 56 4.0 SE 24 35 13 19 1023.8 1023.8 0.0
22/11:00am 12.7 7.3 4.4 57 3.8 SE 22 32 12 17 1023.9 1023.9 0.0
22/10:30am 12.6 6.8 4.3 57 3.8 SE 24 35 13 19 1023.7 1023.7 0.0
22/10:00am 12.6 6.7 4.1 56 3.8 SE 24 35 13 19 1023.8 1023.8 0.0
22/09:30am 12.0 6.4 5.4 64 3.1 SE 24 33 13 18 1023.5 1023.5 0.0
22/09:00am 11.4 6.7 5.3 66 2.8 SE 19 30 10 16 1023.1 1023.1 2.2
22/08:30am 11.2 6.3 5.3 67 2.7 SE 20 32 11 17 1022.4 1022.4 2.2
22/08:00am 11.5 5.5 5.4 66 2.8 SE 26 35 14 19 1021.8 1021.8 2.2
22/07:30am 11.2 5.3 5.7 69 2.6 SE 26 33 14 18 1021.2 1021.2 2.2
22/07:00am 11.1 4.6 6.5 73 2.2 SE 30 39 16 21 1020.6 1020.6 2.2
22/06:30am 11.4 5.0 6.9 74 2.1 SE 30 37 16 20 1020.4 1020.4 2.2
22/06:00am 11.3 5.2 6.8 74 2.1 SE 28 41 15 22 1020.2 1020.2 2.2
22/05:30am 11.5 7.2 8.0 79 1.7 ESE 20 33 11 18 1019.7 1019.7 2.2
22/05:00am 12.4 6.9 7.7 73 2.3 S 26 41 14 22 1019.4 1019.4 2.2
22/04:30am 12.4 4.4 7.5 72 2.4 S 39 50 21 27 1019.0 1019.0 2.2
22/04:00am 13.4 4.9 8.5 72 2.4 SSW 43 54 23 29 1018.4 1018.4 2.2
22/03:30am 13.3 4.5 7.1 66 3.0 SSW 43 61 23 33 1018.4 1018.4 2.2
22/03:00am 13.4 5.7 8.5 72 2.4 SSW 39 57 21 31 1017.8 1017.8 2.2
22/02:58am 13.5 6.5 8.6 72 2.5 SW 35 52 19 28 1017.9 1017.9 2.2
22/02:30am 12.5 5.0 7.8 73 2.3 SW 37 52 20 28 1018.5 1018.5 2.0
22/02:13am 13.3 5.7 7.5 68 2.8 SW 37 56 20 30 1018.4 1018.4 2.0
22/02:00am 13.7 4.8 7.7 67 3.0 SSW 44 57 24 31 1018.1 1018.1 2.0
22/01:30am 14.4 4.8 4.4 51 4.6 SW 44 56 24 30 1018.0 1018.0 2.0
22/01:00am 14.6 3.8 4.0 49 4.9 SW 50 63 27 34 1017.7 1017.7 2.0
22/12:30am 14.5 5.6 6.8 60 3.7 SW 43 56 23 30 1017.1 1017.1 2.0
22/12:00am 14.5 3.8 4.5 51 4.6 SW 50 61 27 33 1017.1 1017.1 2.0
 
Date/Time
WST
Temp
°C
App
Temp
°C
Dew
Point
°C
Rel
Hum
%
Delta-T
°C
Wind Press
QNH
hPa
Press
MSL
hPa
Rain since
9am
mm
Dir  Spd
km/h
Gust
km/h
Spd
kts
Gust
kts
21/11:31pm 14.8 6.1 7.6 62 3.6 SW 43 63 23 34 1016.6 1016.6 2.0
21/11:30pm 14.8 6.1 7.8 63 3.5 SW 43 56 23 30 1016.8 1016.8 2.0
21/11:00pm 14.5 4.6 6.6 59 3.8 SW 48 59 26 32 1016.7 1016.7 2.0

Latest Capital City Observations: Canberra | Sydney | Melbourne | Brisbane | Adelaide | Perth | Hobart | Darwin

Other Formats:

Comma delimited format used in spreadsheet applications
http://www.bom.gov.au/fwo/IDW60901/IDW60901.94602.axf

JavaScript Object Notation format (JSON) in row-major order
http://www.bom.gov.au/fwo/IDW60901/IDW60901.94602.json